createdAt,value
2017-09-24T00:00:02.603Z,8.10
2017-09-24T00:02:42.750Z,6.87
2017-09-24T00:05:17.310Z,7.27
2017-09-24T00:07:51.729Z,5.90
2017-09-24T00:10:26.354Z,7.07
2017-09-24T00:13:00.821Z,8.67
2017-09-24T00:15:35.600Z,7.60
2017-09-24T00:18:10.820Z,6.50
2017-09-24T00:20:45.281Z,7.90
2017-09-24T00:23:19.943Z,6.77
2017-09-24T00:25:54.250Z,7.67
2017-09-24T00:28:28.701Z,6.50
2017-09-24T00:31:02.961Z,7.40
2017-09-24T00:33:38.137Z,7.97
2017-09-24T00:36:12.151Z,7.87
2017-09-24T00:38:46.691Z,8.70
2017-09-24T00:41:20.878Z,7.50
2017-09-24T00:43:55.463Z,7.50
2017-09-24T00:46:30.033Z,8.10
2017-09-24T00:49:05.433Z,8.30
2017-09-24T00:51:39.947Z,9.30
2017-09-24T00:54:14.458Z,6.60
2017-09-24T00:56:48.278Z,7.10
2017-09-24T00:59:22.257Z,9.40
2017-09-24T01:01:56.742Z,7.67
2017-09-24T01:04:31.414Z,7.90
2017-09-24T01:07:06.771Z,9.17
2017-09-24T01:09:41.246Z,8.03
2017-09-24T01:12:15.855Z,11.53
2017-09-24T01:14:50.294Z,8.10
2017-09-24T01:17:25.015Z,10.43
2017-09-24T01:19:59.567Z,8.13
2017-09-24T01:22:34.069Z,7.80
2017-09-24T01:25:15.941Z,11.73
2017-09-24T01:27:50.827Z,9.83
2017-09-24T01:30:26.122Z,8.40
2017-09-24T01:33:00.292Z,9.87
2017-09-24T01:35:34.720Z,10.33
2017-09-24T01:38:09.029Z,11.23
2017-09-24T01:40:43.597Z,12.83
2017-09-24T01:43:17.729Z,8.47
2017-09-24T01:45:52.390Z,9.30
2017-09-24T01:48:26.495Z,8.87
2017-09-24T01:51:01.529Z,9.73
2017-09-24T01:53:35.710Z,9.77
2017-09-24T01:56:10.376Z,8.10
2017-09-24T01:58:44.857Z,9.10
2017-09-24T02:01:19.077Z,8.50
2017-09-24T02:03:53.724Z,8.87
2017-09-24T02:06:28.294Z,9.10
2017-09-24T02:09:02.586Z,8.80
2017-09-24T02:11:37.366Z,10.60
2017-09-24T02:14:12.050Z,8.50
2017-09-24T02:16:46.685Z,9.93
2017-09-24T02:19:21.145Z,8.67
2017-09-24T02:21:55.674Z,8.80
2017-09-24T02:24:30.213Z,9.93
2017-09-24T02:27:04.790Z,9.23
2017-09-24T02:29:39.239Z,11.30
2017-09-24T02:32:13.742Z,8.40
2017-09-24T02:34:48.207Z,8.50
2017-09-24T02:37:22.735Z,9.57
2017-09-24T02:39:57.254Z,8.63
2017-09-24T02:42:31.882Z,9.43
2017-09-24T02:45:14.522Z,9.00
2017-09-24T02:47:49.017Z,7.90
2017-09-24T02:50:23.599Z,12.10
2017-09-24T02:52:58.158Z,7.97
2017-09-24T02:55:32.698Z,7.80
2017-09-24T02:58:07.185Z,9.67
2017-09-24T03:00:41.669Z,7.67
2017-09-24T03:03:16.111Z,7.03
2017-09-24T03:05:50.721Z,6.57
2017-09-24T03:08:25.144Z,7.10
2017-09-24T03:10:59.791Z,7.93
2017-09-24T03:13:34.354Z,6.90
2017-09-24T03:16:08.938Z,7.60
2017-09-24T03:18:43.578Z,5.90
2017-09-24T03:21:18.086Z,8.40
2017-09-24T03:23:53.431Z,6.90
2017-09-24T03:26:27.994Z,6.20
2017-09-24T03:29:02.456Z,6.27
2017-09-24T03:31:37.021Z,7.00
2017-09-24T03:34:11.747Z,6.30
2017-09-24T03:36:46.391Z,6.07
2017-09-24T03:39:20.968Z,8.13
2017-09-24T03:41:56.310Z,5.87
2017-09-24T03:44:30.942Z,8.10
2017-09-24T03:47:05.474Z,6.73
2017-09-24T03:49:39.989Z,7.67
2017-09-24T03:52:14.650Z,7.07
2017-09-24T03:54:49.153Z,9.97
2017-09-24T03:57:23.790Z,7.10
2017-09-24T03:59:58.278Z,6.30
2017-09-24T04:02:32.802Z,6.40
2017-09-24T04:05:10.680Z,8.20
2017-09-24T04:07:45.309Z,8.70
2017-09-24T04:10:20.394Z,6.40
2017-09-24T04:12:55.011Z,8.80
2017-09-24T04:15:29.622Z,6.83
2017-09-24T04:18:04.234Z,8.40
2017-09-24T04:20:38.773Z,7.40
2017-09-24T04:23:13.446Z,7.83
2017-09-24T04:25:48.007Z,7.83
2017-09-24T04:28:22.590Z,9.20
2017-09-24T04:30:57.150Z,8.33
2017-09-24T04:33:31.731Z,9.13
2017-09-24T04:36:06.224Z,8.77
2017-09-24T04:38:40.683Z,6.60
2017-09-24T04:41:15.212Z,6.50
2017-09-24T04:43:49.833Z,11.60
2017-09-24T04:46:24.453Z,6.13
2017-09-24T04:48:58.962Z,9.93
2017-09-24T04:51:33.571Z,7.00
2017-09-24T04:54:08.208Z,9.50
2017-09-24T04:56:42.742Z,7.37
2017-09-24T04:59:17.193Z,6.23
2017-09-24T05:01:51.726Z,6.73
2017-09-24T05:04:26.223Z,6.10
2017-09-24T05:07:00.753Z,9.87
2017-09-24T05:09:35.517Z,6.37
2017-09-24T05:12:10.775Z,7.80
2017-09-24T05:14:45.267Z,7.30
2017-09-24T05:17:19.799Z,6.83
2017-09-24T05:19:54.377Z,6.57
2017-09-24T05:22:28.914Z,6.37
2017-09-24T05:25:04.662Z,6.73
2017-09-24T05:27:40.615Z,6.87
2017-09-24T05:30:15.278Z,6.30
2017-09-24T05:32:50.014Z,7.03
2017-09-24T05:35:24.569Z,6.50
2017-09-24T05:37:59.155Z,6.07
2017-09-24T05:40:33.678Z,9.20
2017-09-24T05:43:08.231Z,7.80
2017-09-24T05:45:42.796Z,7.30
2017-09-24T05:48:17.361Z,7.13
2017-09-24T05:50:51.837Z,19.03
2017-09-24T05:53:26.410Z,9.43
2017-09-24T05:56:00.922Z,7.27
2017-09-24T05:58:35.560Z,7.40
2017-09-24T06:01:10.307Z,7.53
2017-09-24T06:03:45.538Z,16.10
2017-09-24T06:06:20.079Z,9.83
2017-09-24T06:08:55.522Z,6.47
2017-09-24T06:11:30.159Z,8.00
2017-09-24T06:14:04.594Z,10.50
2017-09-24T06:16:39.091Z,7.47
2017-09-24T06:19:13.546Z,7.00
2017-09-24T06:21:48.334Z,7.97
2017-09-24T06:24:22.803Z,8.70
2017-09-24T06:26:57.538Z,5.97
2017-09-24T06:29:32.200Z,6.70
2017-09-24T06:32:06.887Z,6.80
2017-09-24T06:34:41.390Z,5.30
2017-09-24T06:37:15.886Z,5.80
2017-09-24T06:39:50.337Z,6.67
2017-09-24T06:42:24.913Z,6.70
2017-09-24T06:44:59.551Z,6.40
2017-09-24T06:47:34.110Z,6.63
2017-09-24T06:50:17.086Z,6.90
2017-09-24T06:52:51.533Z,7.10
2017-09-24T06:55:26.090Z,9.30
2017-09-24T06:58:00.738Z,5.27
2017-09-24T07:00:35.275Z,6.97
2017-09-24T07:03:09.715Z,5.93
2017-09-24T07:05:44.306Z,15.27
2017-09-24T07:08:19.074Z,7.27
2017-09-24T07:10:53.639Z,6.60
2017-09-24T07:13:28.275Z,5.87
2017-09-24T07:16:02.798Z,5.73
2017-09-24T07:18:37.405Z,5.47
2017-09-24T07:21:12.342Z,6.13
2017-09-24T07:23:46.788Z,6.07
2017-09-24T07:26:21.383Z,5.97
2017-09-24T07:28:56.018Z,5.80
2017-09-24T07:31:30.486Z,6.33
2017-09-24T07:34:05.866Z,12.27
2017-09-24T07:36:40.451Z,6.03
2017-09-24T07:39:15.142Z,4.63
2017-09-24T07:41:49.669Z,4.57
2017-09-24T07:44:24.217Z,4.30
2017-09-24T07:46:58.721Z,4.50
2017-09-24T07:49:33.358Z,4.80
2017-09-24T07:52:07.910Z,3.93
2017-09-24T07:54:42.477Z,4.37
2017-09-24T07:57:17.811Z,6.53
2017-09-24T07:59:53.237Z,4.83
2017-09-24T08:02:27.719Z,4.37
2017-09-24T08:05:02.389Z,3.60
2017-09-24T08:07:38.465Z,4.20
2017-09-24T08:10:17.157Z,4.50
2017-09-24T08:12:51.611Z,6.30
2017-09-24T08:15:26.116Z,4.23
2017-09-24T08:18:00.675Z,7.80
2017-09-24T08:20:35.113Z,4.63
2017-09-24T08:23:09.606Z,4.47
2017-09-24T08:25:44.218Z,4.63
2017-09-24T08:28:18.958Z,3.80
2017-09-24T08:30:53.572Z,3.70
2017-09-24T08:33:28.042Z,6.07
2017-09-24T08:36:02.592Z,3.63
2017-09-24T08:38:37.031Z,4.13
2017-09-24T08:41:11.642Z,2.90
2017-09-24T08:43:46.247Z,2.70
2017-09-24T08:46:20.817Z,3.10
2017-09-24T08:48:55.146Z,4.20
2017-09-24T08:51:29.758Z,3.67
2017-09-24T08:54:04.367Z,3.30
2017-09-24T08:56:39.141Z,5.67
2017-09-24T08:59:13.731Z,9.80
2017-09-24T09:01:48.253Z,7.20
2017-09-24T09:04:22.700Z,7.37
2017-09-24T09:06:57.293Z,4.63
2017-09-24T09:09:31.945Z,2.53
2017-09-24T09:12:06.534Z,1.93
2017-09-24T09:14:40.986Z,3.80
2017-09-24T09:17:15.485Z,2.43
2017-09-24T09:19:49.930Z,3.23
2017-09-24T09:22:24.508Z,2.87
2017-09-24T09:24:59.170Z,1.97
2017-09-24T09:27:33.738Z,2.07
2017-09-24T09:30:24.699Z,1.90
2017-09-24T09:33:10.394Z,4.67
2017-09-24T09:35:44.837Z,1.73
2017-09-24T09:38:19.496Z,2.40
2017-09-24T09:40:54.074Z,2.20
2017-09-24T09:43:39.990Z,2.03
2017-09-24T09:46:26.483Z,1.67
2017-09-24T09:49:02.066Z,3.37
2017-09-24T09:51:36.552Z,2.03
2017-09-24T09:54:11.085Z,1.83
2017-09-24T09:56:45.781Z,1.67
2017-09-24T09:59:20.255Z,1.80
2017-09-24T10:01:54.780Z,2.40
2017-09-24T10:04:29.457Z,1.97
2017-09-24T10:07:14.979Z,1.53
2017-09-24T10:10:00.585Z,1.93
2017-09-24T10:12:34.871Z,1.93
2017-09-24T10:15:10.895Z,1.40
2017-09-24T10:17:46.059Z,1.33
2017-09-24T10:20:20.495Z,1.37
2017-09-24T10:22:54.750Z,1.73
2017-09-24T10:25:29.154Z,1.27
2017-09-24T10:28:02.956Z,1.47
2017-09-24T10:33:36.759Z,1.43
2017-09-24T10:36:11.107Z,2.17
2017-09-24T10:38:45.695Z,1.67
2017-09-24T10:41:20.241Z,1.60
2017-09-24T10:43:54.622Z,1.90
2017-09-24T10:46:30.139Z,1.57
2017-09-24T10:49:05.426Z,1.63
2017-09-24T10:51:40.146Z,2.30
2017-09-24T10:54:14.343Z,2.23
2017-09-24T10:56:49.040Z,1.90
2017-09-24T10:59:23.407Z,1.57
2017-09-24T11:01:57.870Z,2.43
2017-09-24T11:04:32.390Z,2.00
2017-09-24T11:07:07.687Z,1.93
2017-09-24T11:09:42.163Z,2.53
2017-09-24T11:12:16.689Z,1.90
2017-09-24T11:14:51.131Z,2.17
2017-09-24T11:17:25.724Z,1.70
2017-09-24T11:20:00.431Z,2.03
2017-09-24T11:22:35.122Z,1.83
2017-09-24T11:25:17.215Z,1.70
2017-09-24T11:27:51.832Z,1.73
2017-09-24T11:30:26.434Z,2.93
2017-09-24T11:33:00.975Z,2.20
2017-09-24T11:35:35.465Z,2.67
2017-09-24T11:38:10.122Z,2.13
2017-09-24T11:40:44.745Z,3.20
2017-09-24T11:43:19.410Z,3.37
2017-09-24T11:45:53.957Z,2.50
2017-09-24T11:48:28.535Z,2.47
2017-09-24T11:51:03.131Z,2.33
2017-09-24T11:53:38.210Z,2.70
2017-09-24T11:56:13.671Z,4.87
2017-09-24T11:58:48.084Z,3.20
2017-09-24T12:01:23.967Z,2.40
2017-09-24T12:03:59.055Z,2.10
2017-09-24T12:06:33.478Z,2.23
2017-09-24T12:09:07.918Z,4.20
2017-09-24T12:11:42.555Z,3.23
2017-09-24T12:14:17.190Z,2.37
2017-09-24T12:16:51.766Z,1.57
2017-09-24T12:19:26.345Z,1.30
2017-09-24T12:22:00.997Z,1.70
2017-09-24T12:24:35.644Z,2.00
2017-09-24T12:27:10.207Z,2.10
2017-09-24T12:29:44.682Z,1.33
2017-09-24T12:32:19.244Z,2.10
2017-09-24T12:34:53.758Z,1.37
2017-09-24T12:37:28.315Z,2.97
2017-09-24T12:40:02.801Z,2.30
2017-09-24T12:42:37.289Z,1.70
2017-09-24T12:45:11.863Z,1.93
2017-09-24T12:47:46.537Z,2.43
2017-09-24T12:50:27.373Z,2.77
2017-09-24T12:53:01.871Z,2.23
2017-09-24T12:55:36.390Z,2.40
2017-09-24T12:58:11.061Z,1.83
2017-09-24T13:00:45.714Z,1.60
2017-09-24T13:03:20.334Z,2.63
2017-09-24T13:05:55.634Z,2.20
2017-09-24T13:08:30.222Z,1.90
2017-09-24T13:11:04.801Z,2.27
2017-09-24T13:13:39.438Z,2.63
2017-09-24T13:16:14.745Z,2.40
2017-09-24T13:18:49.390Z,2.33
2017-09-24T13:21:24.726Z,2.47
2017-09-24T13:23:59.178Z,2.60
2017-09-24T13:26:33.782Z,3.60
2017-09-24T13:29:09.415Z,2.80
2017-09-24T13:31:44.050Z,2.10
2017-09-24T13:34:18.457Z,3.03
2017-09-24T13:36:53.041Z,2.20
2017-09-24T13:39:27.598Z,2.13
2017-09-24T13:42:02.198Z,6.30
2017-09-24T13:44:36.466Z,3.00
2017-09-24T13:47:11.795Z,2.20
2017-09-24T13:49:46.365Z,3.23
2017-09-24T13:52:20.995Z,2.60
2017-09-24T13:54:55.638Z,2.83
2017-09-24T13:57:30.192Z,2.90
2017-09-24T14:00:06.082Z,2.40
2017-09-24T14:02:40.694Z,2.60
2017-09-24T14:05:16.034Z,3.23
2017-09-24T14:07:50.817Z,2.00
2017-09-24T14:10:27.938Z,3.47
2017-09-24T14:13:02.495Z,4.03
2017-09-24T14:15:37.082Z,3.07
2017-09-24T14:18:11.542Z,2.10
2017-09-24T14:20:46.126Z,2.47
2017-09-24T14:23:20.675Z,3.23
2017-09-24T14:25:55.190Z,6.50
2017-09-24T14:28:29.826Z,4.50
2017-09-24T14:31:04.954Z,2.50
2017-09-24T14:33:39.353Z,5.40
2017-09-24T14:36:13.807Z,3.50
2017-09-24T14:38:48.446Z,2.73
2017-09-24T14:41:23.047Z,3.90
2017-09-24T14:43:57.767Z,3.60
2017-09-24T14:46:32.386Z,3.57
2017-09-24T14:49:07.162Z,3.50
2017-09-24T14:51:41.731Z,5.80
2017-09-24T14:54:16.410Z,5.03
2017-09-24T14:56:51.110Z,4.80
2017-09-24T14:59:25.753Z,3.33
2017-09-24T15:02:00.362Z,3.60
2017-09-24T15:04:34.843Z,3.77
2017-09-24T15:07:09.342Z,3.63
2017-09-24T15:09:43.731Z,3.83
2017-09-24T15:12:18.923Z,3.73
2017-09-24T15:14:54.039Z,6.43
2017-09-24T15:17:28.510Z,2.90
2017-09-24T15:20:02.281Z,3.13
2017-09-24T15:22:36.681Z,5.20
2017-09-24T15:25:11.017Z,4.80
2017-09-24T15:27:45.566Z,6.47
2017-09-24T15:30:20.111Z,7.37
2017-09-24T15:32:54.822Z,2.63
2017-09-24T15:35:29.440Z,3.40
2017-09-24T15:38:04.071Z,3.77
2017-09-24T15:40:38.586Z,3.30
2017-09-24T15:43:13.283Z,4.93
2017-09-24T15:45:48.306Z,3.50
2017-09-24T15:48:22.958Z,4.07
2017-09-24T15:50:57.712Z,4.00
2017-09-24T15:53:32.040Z,4.67
2017-09-24T15:56:06.667Z,3.70
2017-09-24T15:58:42.203Z,3.87
2017-09-24T16:01:16.781Z,4.73
2017-09-24T16:03:51.418Z,7.13
2017-09-24T16:06:25.829Z,4.47
2017-09-24T16:09:00.214Z,4.97
2017-09-24T16:11:34.558Z,4.03
2017-09-24T16:14:08.941Z,3.67
2017-09-24T16:16:43.438Z,4.30
2017-09-24T16:19:17.714Z,3.57
2017-09-24T16:21:52.329Z,3.60
2017-09-24T16:24:26.979Z,4.23
2017-09-24T16:27:01.529Z,4.60
2017-09-24T16:29:36.738Z,4.47
2017-09-24T16:32:12.063Z,5.10
2017-09-24T16:34:46.619Z,4.60
2017-09-24T16:37:21.059Z,4.00
2017-09-24T16:39:55.606Z,5.23
2017-09-24T16:42:30.215Z,4.50
2017-09-24T16:45:14.359Z,5.40
2017-09-24T16:47:49.654Z,23.13
2017-09-24T16:50:24.257Z,18.27
2017-09-24T16:52:59.263Z,9.70
2017-09-24T16:55:33.674Z,5.07
2017-09-24T16:58:08.639Z,4.53
2017-09-24T17:00:43.390Z,5.10
2017-09-24T17:03:18.452Z,5.70
2017-09-24T17:05:53.078Z,6.23
2017-09-24T17:08:27.710Z,8.23
2017-09-24T17:11:02.299Z,9.10
2017-09-24T17:13:37.408Z,6.83
2017-09-24T17:16:12.142Z,7.27
2017-09-24T17:18:46.634Z,6.60
2017-09-24T17:21:21.171Z,7.13
2017-09-24T17:23:55.870Z,8.47
2017-09-24T17:26:31.169Z,7.27
2017-09-24T17:29:05.787Z,6.33
2017-09-24T17:31:40.501Z,7.23
2017-09-24T17:34:15.043Z,6.53
2017-09-24T17:36:49.590Z,6.67
2017-09-24T17:39:24.093Z,7.63
2017-09-24T17:41:58.870Z,10.03
2017-09-24T17:44:33.586Z,6.50
2017-09-24T17:47:08.178Z,6.10
2017-09-24T17:49:42.727Z,5.50
2017-09-24T17:52:17.098Z,12.77
2017-09-24T17:54:51.765Z,6.90
2017-09-24T17:57:26.437Z,7.73
2017-09-24T18:00:01.126Z,7.30
2017-09-24T18:02:35.668Z,8.17
2017-09-24T18:05:15.994Z,7.90
2017-09-24T18:07:50.434Z,7.77
2017-09-24T18:10:25.041Z,8.13
2017-09-24T18:12:59.661Z,5.83
2017-09-24T18:15:34.220Z,7.33
2017-09-24T18:18:08.597Z,8.83
2017-09-24T18:20:43.026Z,10.47
2017-09-24T18:23:17.666Z,6.47
2017-09-24T18:25:52.325Z,16.60
2017-09-24T18:28:26.914Z,8.03
2017-09-24T18:31:02.274Z,9.90
2017-09-24T18:33:36.825Z,7.10
2017-09-24T18:36:11.493Z,8.20
2017-09-24T18:38:46.046Z,7.50
2017-09-24T18:41:20.572Z,7.87
2017-09-24T18:43:55.241Z,10.03
2017-09-24T18:46:29.823Z,7.97
2017-09-24T18:49:04.424Z,7.43
2017-09-24T18:51:39.019Z,8.37
2017-09-24T18:54:13.578Z,11.93
2017-09-24T18:56:48.093Z,7.53
2017-09-24T18:59:22.811Z,8.20
2017-09-24T19:01:57.282Z,9.93
2017-09-24T19:04:32.139Z,7.90
2017-09-24T19:07:06.807Z,8.20
2017-09-24T19:09:41.439Z,7.80
2017-09-24T19:12:16.245Z,8.13
2017-09-24T19:14:50.719Z,7.80
2017-09-24T19:17:25.713Z,12.47
2017-09-24T19:20:00.284Z,9.93
2017-09-24T19:22:34.809Z,10.10
2017-09-24T19:25:15.378Z,8.40
2017-09-24T19:27:50.114Z,9.60
2017-09-24T19:30:24.773Z,9.20
2017-09-24T19:32:59.239Z,10.30
2017-09-24T19:35:33.867Z,8.60
2017-09-24T19:38:08.298Z,9.33
2017-09-24T19:40:43.624Z,8.03
2017-09-24T19:43:18.204Z,9.70
2017-09-24T19:45:52.504Z,8.30
2017-09-24T19:48:27.106Z,7.60
2017-09-24T19:51:01.747Z,7.30
2017-09-24T19:53:37.165Z,7.90
2017-09-24T19:56:11.421Z,7.87
2017-09-24T19:58:45.922Z,10.43
2017-09-24T20:01:20.294Z,8.40
2017-09-24T20:03:55.203Z,7.80
2017-09-24T20:06:29.854Z,8.10
2017-09-24T20:09:03.434Z,7.60
2017-09-24T20:11:38.259Z,7.90
2017-09-24T20:14:12.788Z,8.43
2017-09-24T20:16:47.343Z,8.80
2017-09-24T20:19:22.010Z,7.67
2017-09-24T20:21:56.637Z,7.90
2017-09-24T20:24:31.311Z,8.50
2017-09-24T20:27:05.851Z,9.33
2017-09-24T20:29:40.535Z,9.27
2017-09-24T20:32:14.696Z,9.73
2017-09-24T20:34:49.180Z,8.80
2017-09-24T20:37:23.769Z,10.70
2017-09-24T20:39:58.274Z,10.07
2017-09-24T20:42:32.898Z,9.67
2017-09-24T20:45:11.648Z,10.93
2017-09-24T20:47:46.254Z,15.00
2017-09-24T20:50:21.595Z,9.30
2017-09-24T20:52:56.036Z,9.73
2017-09-24T20:55:30.640Z,10.60
2017-09-24T20:58:04.910Z,9.27
2017-09-24T21:00:39.491Z,10.00
2017-09-24T21:03:14.146Z,10.13
2017-09-24T21:05:48.654Z,9.10
2017-09-24T21:08:23.234Z,10.20
2017-09-24T21:10:57.966Z,9.83
2017-09-24T21:13:32.597Z,17.57
2017-09-24T21:16:07.266Z,16.67
2017-09-24T21:18:41.929Z,10.37
2017-09-24T21:21:16.518Z,10.33
2017-09-24T21:23:50.823Z,12.43
2017-09-24T21:26:25.330Z,11.07
2017-09-24T21:28:59.777Z,14.27
2017-09-24T21:31:34.318Z,9.83
2017-09-24T21:34:08.892Z,13.00
2017-09-24T21:36:43.606Z,10.00
2017-09-24T21:39:18.066Z,13.87
2017-09-24T21:41:52.629Z,18.00
2017-09-24T21:44:27.159Z,13.53
2017-09-24T21:47:01.753Z,10.40
2017-09-24T21:49:36.388Z,11.33
2017-09-24T21:52:10.899Z,11.53
2017-09-24T21:54:45.665Z,9.60
2017-09-24T21:57:20.225Z,11.67
2017-09-24T21:59:54.690Z,12.43
2017-09-24T22:02:29.187Z,9.50
2017-09-24T22:05:04.493Z,11.00
2017-09-24T22:07:41.628Z,9.97
2017-09-24T22:10:16.069Z,12.37
2017-09-24T22:12:50.634Z,9.87
2017-09-24T22:15:25.218Z,10.03
2017-09-24T22:17:59.662Z,8.80
2017-09-24T22:20:34.225Z,10.07
2017-09-24T22:23:08.742Z,11.93
2017-09-24T22:25:43.243Z,10.47
2017-09-24T22:28:17.814Z,11.40
2017-09-24T22:30:52.331Z,9.83
2017-09-24T22:33:26.971Z,10.77
2017-09-24T22:36:01.450Z,9.60
2017-09-24T22:38:36.113Z,11.47
2017-09-24T22:41:10.687Z,10.13
2017-09-24T22:43:45.272Z,11.13
2017-09-24T22:46:19.875Z,9.90
2017-09-24T22:48:54.707Z,9.40
2017-09-24T22:51:29.345Z,11.03
2017-09-24T22:54:04.546Z,10.63
2017-09-24T22:56:38.922Z,11.10
2017-09-24T22:59:13.502Z,9.27
2017-09-24T23:01:48.054Z,9.17
2017-09-24T23:04:22.674Z,10.30
2017-09-24T23:06:57.221Z,10.67
2017-09-24T23:09:32.622Z,10.93
2017-09-24T23:12:07.258Z,11.80
2017-09-24T23:14:42.675Z,14.93
2017-09-24T23:17:17.389Z,11.67
2017-09-24T23:19:51.764Z,11.97
2017-09-24T23:22:25.654Z,12.50
2017-09-24T23:25:00.269Z,11.23
2017-09-24T23:27:34.882Z,12.73
2017-09-24T23:30:16.042Z,15.90
2017-09-24T23:32:50.596Z,14.03
2017-09-24T23:35:25.855Z,14.73
2017-09-24T23:38:00.772Z,14.53
2017-09-24T23:40:35.450Z,14.57
2017-09-24T23:43:10.071Z,15.50
2017-09-24T23:45:44.585Z,15.63
2017-09-24T23:48:19.103Z,14.77
2017-09-24T23:50:53.688Z,13.87
2017-09-24T23:53:28.730Z,16.93
2017-09-24T23:56:03.287Z,17.90
2017-09-24T23:58:37.983Z,16.60
